Terminal Aerodrome Forecast
Issued by NWS Billings, MT

Home | Current Version | Previous Version | Text Only | Print | Product List | Glossary On
Versions: 1 2 3 4 5 6 7 8 9 10 11 12 13 14 15 16 17 18 19 20 21 22 23 24 25
000
FTUS45 KBYZ 231137
TAFBIL
TAF
KBIL 231137Z 2312/2412 29017G26KT P6SM SCT100
     FM231800 31021G29KT P6SM BKN100
     FM240300 26014KT P6SM BKN080
     FM241000 29020KT P6SM VCSH BKN050=

USA.gov is the U.S. government's official web portal to all federal, state and local government web resources and services.